Time;durP1;ratioP1;P1;durP2;ratioP2;P2;SDS_P1;SDS_P2;PMS_P1;PMS_P2;Temp;Humidity;BMP_temperature;BMP_pressure;BME280_temperature;BME280_humidity;BME280_pressure;Samples;Min_cycle;Max_cycle;Signal;HPM_P1;HPM_P2
2023/09/23 00:00:36;;;;;;;9.20;4.00;;;;;;;;;;5014913;28;20151;-73
2023/09/23 00:03:02;;;;;;;8.45;3.80;;;;;;;;;;5017787;28;20480;-73
2023/09/23 00:05:29;;;;;;;8.93;4.00;;;;;;;;;;5025231;28;20022;-73
2023/09/23 00:07:56;;;;;;;14.50;5.25;;;;;;;;;;5024134;28;20033;-73
2023/09/23 00:10:23;;;;;;;10.48;4.03;;;;;;;;;;5025043;28;20025;-73
2023/09/23 00:12:49;;;;;;;9.13;4.47;;;;;;;;;;5025591;28;20026;-74
2023/09/23 00:15:16;;;;;;;13.70;4.80;;;;;;;;;;5024383;28;20026;-73
2023/09/23 00:17:46;;;;;;;9.52;4.95;;;;;;;;;;5019354;28;20130;-74
2023/09/23 00:20:15;;;;;;;8.85;4.47;;;;;;;;;;5013250;28;20550;-73
2023/09/23 00:22:42;;;;;;;9.18;4.78;;;;;;;;;;5013042;28;20033;-74
2023/09/23 00:25:09;;;;;;;9.85;4.65;;;;;;;;;;5012927;28;20075;-74
2023/09/23 00:27:35;;;;;;;9.30;4.40;;;;;;;;;;5013167;28;20022;-73
2023/09/23 00:30:05;;;;;;;8.15;3.70;;;;;;;;;;5012991;28;20037;-74
2023/09/23 00:32:32;;;;;;;9.60;3.80;;;;;;;;;;5012901;28;20151;-74
2023/09/23 00:34:59;;;;;;;8.77;4.13;;;;;;;;;;5012625;28;20100;-74
2023/09/23 00:37:25;;;;;;;7.85;4.78;;;;;;;;;;5013224;28;20026;-74
2023/09/23 00:39:51;;;;;;;9.38;4.57;;;;;;;;;;5012916;28;20022;-74
2023/09/23 00:42:19;;;;;;;9.30;4.38;;;;;;;;;;5012747;28;20384;-74
2023/09/23 00:44:45;;;;;;;8.45;4.88;;;;;;;;;;5012482;28;20018;-74
2023/09/23 00:47:15;;;;;;;7.93;4.40;;;;;;;;;;5012878;28;20380;-74
2023/09/23 00:49:45;;;;;;;10.85;4.65;;;;;;;;;;5012651;28;20536;-74
2023/09/23 00:52:15;;;;;;;12.60;5.00;;;;;;;;;;5012605;28;20053;-74
2023/09/23 00:54:46;;;;;;;8.20;4.13;;;;;;;;;;5012587;28;20427;-74
2023/09/23 00:57:12;;;;;;;7.10;3.78;;;;;;;;;;5011167;28;20516;-74
2023/09/23 00:59:40;;;;;;;11.85;4.22;;;;;;;;;;5012604;28;20101;-75
2023/09/23 01:02:06;;;;;;;8.73;3.80;;;;;;;;;;5012522;28;20018;-74
2023/09/23 01:04:32;;;;;;;10.68;3.58;;;;;;;;;;5012395;28;20026;-74
2023/09/23 01:07:00;;;;;;;8.63;3.60;;;;;;;;;;5012646;28;20025;-74
2023/09/23 01:09:29;;;;;;;15.15;3.33;;;;;;;;;;5012347;28;20489;-73
2023/09/23 01:11:56;;;;;;;10.70;3.60;;;;;;;;;;5012227;28;20079;-73
2023/09/23 01:14:22;;;;;;;9.02;3.88;;;;;;;;;;5012126;28;20103;-73
2023/09/23 01:16:49;;;;;;;8.55;3.50;;;;;;;;;;5011982;28;20026;-74
2023/09/23 01:19:15;;;;;;;8.77;3.30;;;;;;;;;;5012356;28;20030;-74
2023/09/23 01:21:41;;;;;;;7.20;3.78;;;;;;;;;;5011334;28;20072;-74
2023/09/23 01:24:07;;;;;;;9.32;3.63;;;;;;;;;;5012045;28;20034;-73
2023/09/23 01:26:34;;;;;;;7.18;3.47;;;;;;;;;;5011791;28;20473;-73
2023/09/23 01:29:00;;;;;;;5.95;3.47;;;;;;;;;;5012219;28;20100;-71
2023/09/23 01:31:29;;;;;;;8.07;3.60;;;;;;;;;;5012150;28;20440;-72
2023/09/23 01:33:56;;;;;;;5.95;3.58;;;;;;;;;;5011778;28;20064;-72
2023/09/23 01:36:22;;;;;;;9.98;4.68;;;;;;;;;;5010369;28;20094;-72
2023/09/23 01:38:51;;;;;;;5.30;3.63;;;;;;;;;;5012931;28;20026;-73
2023/09/23 01:41:17;;;;;;;9.77;4.60;;;;;;;;;;5013323;28;20046;-72
2023/09/23 01:43:43;;;;;;;11.32;4.82;;;;;;;;;;5013452;28;20373;-72
2023/09/23 01:46:10;;;;;;;9.73;4.55;;;;;;;;;;5012552;28;20025;-72
2023/09/23 01:48:38;;;;;;;9.18;4.75;;;;;;;;;;5013075;28;20026;-72
2023/09/23 01:51:06;;;;;;;11.05;4.78;;;;;;;;;;5012703;28;20022;-72
2023/09/23 01:53:32;;;;;;;8.43;4.60;;;;;;;;;;5014368;28;20034;-74
2023/09/23 01:55:58;;;;;;;9.73;5.45;;;;;;;;;;5012927;28;20123;-71
2023/09/23 01:58:24;;;;;;;11.05;5.75;;;;;;;;;;5013220;28;20492;-73
2023/09/23 02:00:51;;;;;;;11.07;6.28;;;;;;;;;;5016679;28;20054;-73
2023/09/23 02:03:17;;;;;;;10.48;5.97;;;;;;;;;;5012100;28;20030;-74
2023/09/23 02:05:43;;;;;;;6.35;5.30;;;;;;;;;;5027944;28;20072;-74
2023/09/23 02:08:09;;;;;;;14.55;6.20;;;;;;;;;;5032155;28;20036;-74
2023/09/23 02:10:35;;;;;;;10.75;6.65;;;;;;;;;;5018542;28;20501;-74
2023/09/23 02:13:02;;;;;;;7.95;5.30;;;;;;;;;;5012051;28;20337;-74
2023/09/23 02:15:28;;;;;;;8.02;5.65;;;;;;;;;;5023543;28;20060;-74
2023/09/23 02:17:54;;;;;;;12.20;6.65;;;;;;;;;;5031562;28;20064;-74
2023/09/23 02:20:21;;;;;;;8.75;5.93;;;;;;;;;;5031566;28;20022;-74
2023/09/23 02:22:48;;;;;;;8.95;5.78;;;;;;;;;;5032057;28;20058;-75
2023/09/23 02:25:15;;;;;;;9.93;6.63;;;;;;;;;;5030834;28;20021;-74
2023/09/23 02:27:44;;;;;;;9.57;6.82;;;;;;;;;;5027718;28;20040;-73
2023/09/23 02:30:11;;;;;;;10.13;6.45;;;;;;;;;;5021816;28;20030;-73
2023/09/23 02:32:39;;;;;;;15.95;8.52;;;;;;;;;;5033272;28;20053;-76
2023/09/23 02:35:06;;;;;;;15.27;9.05;;;;;;;;;;5034929;28;20484;-74
2023/09/23 02:37:32;;;;;;;10.70;7.80;;;;;;;;;;5028838;28;20385;-75
2023/09/23 02:39:58;;;;;;;11.55;7.03;;;;;;;;;;5023138;28;20033;-74
2023/09/23 02:42:24;;;;;;;15.48;7.05;;;;;;;;;;5034784;28;20021;-75
2023/09/23 02:44:50;;;;;;;10.07;6.97;;;;;;;;;;5034405;28;20029;-74
2023/09/23 02:47:16;;;;;;;11.35;6.88;;;;;;;;;;5034775;28;20025;-73
2023/09/23 02:49:44;;;;;;;9.20;7.70;;;;;;;;;;5034493;28;20044;-75
2023/09/23 02:52:10;;;;;;;10.98;8.38;;;;;;;;;;5034621;28;20396;-73
2023/09/23 02:54:36;;;;;;;12.05;8.38;;;;;;;;;;5034283;28;20022;-74
2023/09/23 02:57:02;;;;;;;11.75;8.18;;;;;;;;;;5035062;28;20040;-74
2023/09/23 02:59:31;;;;;;;13.30;8.45;;;;;;;;;;5034351;28;20278;-74
2023/09/23 03:01:58;;;;;;;12.25;8.15;;;;;;;;;;5033729;28;20022;-73
2023/09/23 03:04:24;;;;;;;11.98;7.95;;;;;;;;;;5034419;28;20420;-73
2023/09/23 03:07:01;;;;;;;10.25;8.20;;;;;;;;;;5034375;28;20033;-74
2023/09/23 03:09:32;;;;;;;14.05;9.43;;;;;;;;;;5037195;28;20392;-74
2023/09/23 03:11:59;;;;;;;13.52;8.68;;;;;;;;;;5037735;28;20021;-76
2023/09/23 03:14:35;;;;;;;11.95;9.10;;;;;;;;;;5037335;28;20025;-74
2023/09/23 03:17:01;;;;;;;19.23;9.90;;;;;;;;;;5034492;28;20036;-76
2023/09/23 03:19:28;;;;;;;13.82;9.05;;;;;;;;;;5034601;28;20071;-74
2023/09/23 03:21:57;;;;;;;13.43;9.13;;;;;;;;;;5037031;28;20077;-74
2023/09/23 03:24:28;;;;;;;12.73;9.20;;;;;;;;;;5034683;28;20094;-74
2023/09/23 03:26:55;;;;;;;16.30;10.25;;;;;;;;;;5036709;28;20024;-74
2023/09/23 03:29:22;;;;;;;13.18;10.60;;;;;;;;;;5035216;28;20048;-73
2023/09/23 03:31:48;;;;;;;13.95;10.25;;;;;;;;;;5035927;28;20088;-74
2023/09/23 03:34:14;;;;;;;14.63;11.38;;;;;;;;;;5035689;28;20045;-74
2023/09/23 03:36:41;;;;;;;14.65;10.98;;;;;;;;;;5035576;28;20055;-73
2023/09/23 03:39:08;;;;;;;14.55;12.25;;;;;;;;;;5032323;28;20451;-73
2023/09/23 03:41:37;;;;;;;16.65;12.73;;;;;;;;;;5032961;28;20483;-74
2023/09/23 03:44:03;;;;;;;17.05;12.27;;;;;;;;;;5018106;28;20025;-76
2023/09/23 03:46:29;;;;;;;21.65;14.32;;;;;;;;;;5025094;28;20032;-76
2023/09/23 03:48:56;;;;;;;21.48;15.63;;;;;;;;;;5027674;28;20344;-78
2023/09/23 03:51:24;;;;;;;19.05;14.60;;;;;;;;;;5019762;28;20110;-77
2023/09/23 03:53:51;;;;;;;18.98;14.90;;;;;;;;;;5021210;28;20025;-77
2023/09/23 03:56:17;;;;;;;21.80;15.52;;;;;;;;;;5032374;28;20069;-76
2023/09/23 03:58:43;;;;;;;20.80;14.80;;;;;;;;;;5024971;28;20033;-77
2023/09/23 04:01:13;;;;;;;21.40;17.80;;;;;;;;;;5014132;28;20425;-75
2023/09/23 04:03:40;;;;;;;21.10;17.33;;;;;;;;;;5013935;28;20018;-74
2023/09/23 04:06:06;;;;;;;22.30;17.02;;;;;;;;;;5013798;28;20038;-74
2023/09/23 04:08:32;;;;;;;26.13;17.70;;;;;;;;;;5013702;28;20040;-74
2023/09/23 04:11:03;;;;;;;28.75;18.05;;;;;;;;;;5013659;28;20026;-74
2023/09/23 04:13:30;;;;;;;25.77;17.35;;;;;;;;;;5013693;28;20022;-73
2023/09/23 04:16:00;;;;;;;24.58;18.05;;;;;;;;;;5014394;28;20030;-74
2023/09/23 04:18:26;;;;;;;25.73;18.15;;;;;;;;;;5013269;28;20034;-74
2023/09/23 04:20:53;;;;;;;24.73;18.95;;;;;;;;;;5013173;28;20029;-73
2023/09/23 04:23:19;;;;;;;22.45;16.65;;;;;;;;;;5013268;28;20018;-74
2023/09/23 04:25:45;;;;;;;25.75;16.42;;;;;;;;;;5013008;28;20069;-74
2023/09/23 04:28:11;;;;;;;20.58;15.88;;;;;;;;;;5013542;28;20061;-74
2023/09/23 04:30:37;;;;;;;25.23;18.77;;;;;;;;;;5013349;28;20022;-74
2023/09/23 04:33:04;;;;;;;22.45;16.83;;;;;;;;;;5011679;28;20503;-72
2023/09/23 04:35:30;;;;;;;22.13;17.15;;;;;;;;;;5015438;28;20384;-74
2023/09/23 04:37:56;;;;;;;22.52;18.00;;;;;;;;;;5016980;28;20085;-74
2023/09/23 04:40:22;;;;;;;24.60;19.48;;;;;;;;;;5016492;28;20032;-73
2023/09/23 04:42:48;;;;;;;23.50;16.17;;;;;;;;;;5016175;28;20057;-73
2023/09/23 04:45:14;;;;;;;21.17;17.85;;;;;;;;;;5015096;28;20018;-74
2023/09/23 04:47:40;;;;;;;23.15;17.23;;;;;;;;;;5016661;28;20030;-72
2023/09/23 04:50:08;;;;;;;25.55;18.42;;;;;;;;;;5026899;28;20037;-73
2023/09/23 04:52:35;;;;;;;25.75;18.05;;;;;;;;;;5021305;28;20017;-74
2023/09/23 04:55:02;;;;;;;18.75;16.08;;;;;;;;;;5016600;28;20041;-73
2023/09/23 04:57:28;;;;;;;25.52;19.13;;;;;;;;;;5015844;28;20033;-71
2023/09/23 04:59:56;;;;;;;23.40;19.25;;;;;;;;;;5017420;28;20069;-74
2023/09/23 05:02:22;;;;;;;24.13;19.48;;;;;;;;;;5015500;28;20060;-73
2023/09/23 05:04:53;;;;;;;24.70;19.75;;;;;;;;;;5015561;28;20085;-73
2023/09/23 05:07:19;;;;;;;23.60;19.73;;;;;;;;;;5016637;28;20128;-73
2023/09/23 05:09:45;;;;;;;26.05;21.30;;;;;;;;;;5014367;28;20038;-74
2023/09/23 05:12:11;;;;;;;23.35;19.52;;;;;;;;;;5033636;28;20033;-74
2023/09/23 05:14:39;;;;;;;23.55;18.83;;;;;;;;;;5035080;28;20495;-74
2023/09/23 05:17:06;;;;;;;27.20;23.05;;;;;;;;;;5032632;28;20097;-74
2023/09/23 05:19:35;;;;;;;26.63;21.50;;;;;;;;;;5025293;28;20033;-73
2023/09/23 05:22:03;;;;;;;27.30;23.42;;;;;;;;;;5027753;28;20049;-73
2023/09/23 05:24:29;;;;;;;37.63;26.88;;;;;;;;;;5035009;28;20017;-72
2023/09/23 05:26:55;;;;;;;32.10;25.80;;;;;;;;;;5018669;28;20032;-73
2023/09/23 05:29:24;;;;;;;31.15;26.73;;;;;;;;;;5031185;28;20084;-73
2023/09/23 05:31:50;;;;;;;32.13;26.00;;;;;;;;;;5024713;28;20104;-73
2023/09/23 05:34:18;;;;;;;29.17;24.35;;;;;;;;;;5019201;28;20037;-73
2023/09/23 05:36:45;;;;;;;36.17;28.08;;;;;;;;;;5031044;28;20017;-73
2023/09/23 05:39:17;;;;;;;29.05;23.17;;;;;;;;;;5029862;28;20046;-74
2023/09/23 05:41:43;;;;;;;32.17;27.42;;;;;;;;;;5016605;28;20025;-74
2023/09/23 05:44:09;;;;;;;30.70;25.52;;;;;;;;;;5027139;28;20051;-75
2023/09/23 05:46:40;;;;;;;31.92;22.98;;;;;;;;;;5025984;28;20030;-74
2023/09/23 05:49:09;;;;;;;34.15;25.77;;;;;;;;;;5023082;28;20061;-73
2023/09/23 05:51:35;;;;;;;25.77;21.40;;;;;;;;;;5021217;28;20026;-73
2023/09/23 05:54:04;;;;;;;26.33;21.98;;;;;;;;;;5031728;28;21043;-74
2023/09/23 05:56:30;;;;;;;24.73;19.95;;;;;;;;;;5022378;28;20055;-73
2023/09/23 05:58:56;;;;;;;32.40;23.45;;;;;;;;;;5015871;28;20465;-73
2023/09/23 06:01:22;;;;;;;26.63;20.80;;;;;;;;;;5030378;28;20025;-75
2023/09/23 06:03:49;;;;;;;29.60;21.13;;;;;;;;;;5026163;28;20017;-73
2023/09/23 06:06:15;;;;;;;27.90;22.05;;;;;;;;;;5025656;28;20022;-72
2023/09/23 06:08:41;;;;;;;29.80;23.48;;;;;;;;;;5032954;28;20065;-73
2023/09/23 06:11:09;;;;;;;28.80;20.70;;;;;;;;;;5032051;28;20030;-73
2023/09/23 06:13:35;;;;;;;30.75;21.17;;;;;;;;;;5031263;28;20033;-73
2023/09/23 06:16:05;;;;;;;30.20;21.25;;;;;;;;;;5024173;28;20556;-73
2023/09/23 06:18:31;;;;;;;27.10;21.98;;;;;;;;;;5018300;28;20038;-74
2023/09/23 06:21:01;;;;;;;28.85;20.35;;;;;;;;;;5015131;28;20056;-72
2023/09/23 06:23:27;;;;;;;27.00;20.75;;;;;;;;;;5014330;28;20037;-72
2023/09/23 06:26:02;;;;;;;32.65;20.38;;;;;;;;;;5015128;28;20025;-72
2023/09/23 06:28:29;;;;;;;;;;;;;;;;;;5015890;28;20018;-72
2023/09/23 06:30:55;;;;;;;25.50;20.60;;;;;;;;;;5015473;28;19913;-74
2023/09/23 06:33:21;;;;;;;24.55;18.52;;;;;;;;;;5015283;28;20034;-78
2023/09/23 06:35:48;;;;;;;23.80;17.33;;;;;;;;;;5015685;28;20029;-76
2023/09/23 06:38:14;;;;;;;23.90;16.55;;;;;;;;;;5015870;28;20030;-76
2023/09/23 06:40:40;;;;;;;22.00;16.77;;;;;;;;;;5016587;28;20026;-74
2023/09/23 06:43:07;;;;;;;22.92;16.05;;;;;;;;;;5015823;28;20512;-73
2023/09/23 06:45:33;;;;;;;21.30;15.60;;;;;;;;;;5014996;28;20026;-73
2023/09/23 06:47:59;;;;;;;20.88;16.40;;;;;;;;;;5015423;28;20397;-73
2023/09/23 06:50:25;;;;;;;20.00;14.95;;;;;;;;;;5015291;28;20032;-76
2023/09/23 06:52:51;;;;;;;20.38;13.63;;;;;;;;;;5015050;28;20026;-76
2023/09/23 06:55:17;;;;;;;15.98;12.40;;;;;;;;;;5014444;28;20022;-73
2023/09/23 06:57:43;;;;;;;16.00;12.32;;;;;;;;;;5014854;28;20064;-75
2023/09/23 07:00:09;;;;;;;14.65;11.77;;;;;;;;;;5016059;28;20117;-76
2023/09/23 07:02:35;;;;;;;14.10;10.65;;;;;;;;;;5015554;28;20049;-74
2023/09/23 07:05:02;;;;;;;14.80;10.20;;;;;;;;;;5014389;28;20484;-74
2023/09/23 07:07:28;;;;;;;15.43;11.10;;;;;;;;;;5013529;28;20515;-72
2023/09/23 07:09:54;;;;;;;13.10;9.73;;;;;;;;;;5014528;28;20037;-75
2023/09/23 07:12:20;;;;;;;15.60;9.98;;;;;;;;;;5014558;28;20057;-73
2023/09/23 07:14:46;;;;;;;14.88;10.02;;;;;;;;;;5014521;28;20105;-75
2023/09/23 07:17:12;;;;;;;14.77;8.80;;;;;;;;;;5013377;28;20116;-75
2023/09/23 07:19:38;;;;;;;11.23;8.77;;;;;;;;;;5013023;28;20045;-74
2023/09/23 07:22:04;;;;;;;12.82;7.72;;;;;;;;;;5028227;28;20053;-74
2023/09/23 07:24:32;;;;;;;12.90;6.97;;;;;;;;;;5034262;28;20029;-73
2023/09/23 07:26:59;;;;;;;11.73;7.32;;;;;;;;;;5035250;28;20100;-74
2023/09/23 07:29:25;;;;;;;9.43;6.75;;;;;;;;;;5033822;28;20025;-73
2023/09/23 07:31:53;;;;;;;9.43;6.07;;;;;;;;;;5034687;28;20030;-73
2023/09/23 07:34:19;;;;;;;7.75;6.45;;;;;;;;;;5033769;28;20030;-75
2023/09/23 07:36:45;;;;;;;8.35;5.90;;;;;;;;;;5033332;28;20033;-74
2023/09/23 07:39:10;;;;;;;11.45;6.68;;;;;;;;;;5033991;28;20101;-73
2023/09/23 07:41:37;;;;;;;9.73;5.65;;;;;;;;;;5033928;28;20030;-73
2023/09/23 07:44:03;;;;;;;11.02;6.53;;;;;;;;;;5036040;28;20029;-72
2023/09/23 07:46:29;;;;;;;8.18;5.68;;;;;;;;;;5033494;28;20392;-74
2023/09/23 07:48:56;;;;;;;8.13;4.70;;;;;;;;;;5034337;28;20124;-72
2023/09/23 07:51:22;;;;;;;8.32;5.07;;;;;;;;;;5033591;28;20029;-74
2023/09/23 07:53:48;;;;;;;8.77;4.28;;;;;;;;;;5033016;28;20044;-72
2023/09/23 07:56:14;;;;;;;7.50;4.40;;;;;;;;;;5032536;28;20030;-72
2023/09/23 07:58:40;;;;;;;6.07;4.20;;;;;;;;;;5032694;28;20029;-72
2023/09/23 08:01:06;;;;;;;9.57;4.20;;;;;;;;;;5033821;28;20040;-73
2023/09/23 08:03:32;;;;;;;5.32;3.63;;;;;;;;;;5041705;28;20025;-74
2023/09/23 08:05:58;;;;;;;8.70;3.70;;;;;;;;;;5033029;28;20018;-73
2023/09/23 08:08:24;;;;;;;7.45;3.95;;;;;;;;;;5033161;28;20113;-72
2023/09/23 08:10:50;;;;;;;6.03;3.58;;;;;;;;;;5033330;28;20025;-75
2023/09/23 08:13:16;;;;;;;8.70;3.40;;;;;;;;;;5033297;28;20033;-74
2023/09/23 08:15:42;;;;;;;10.00;5.18;;;;;;;;;;5032934;28;20283;-73
2023/09/23 08:18:08;;;;;;;7.30;3.70;;;;;;;;;;5032720;28;20025;-73
2023/09/23 08:20:35;;;;;;;5.43;3.53;;;;;;;;;;5032898;28;20032;-73
2023/09/23 08:23:02;;;;;;;6.25;3.35;;;;;;;;;;5033205;28;20444;-73
2023/09/23 08:25:29;;;;;;;6.43;3.10;;;;;;;;;;5032759;28;20129;-74
2023/09/23 08:27:56;;;;;;;16.02;7.85;;;;;;;;;;5033213;28;20077;-74
2023/09/23 08:30:23;;;;;;;8.85;3.97;;;;;;;;;;5032363;28;20056;-74
2023/09/23 08:32:49;;;;;;;6.47;2.83;;;;;;;;;;5032553;28;20079;-72
2023/09/23 08:35:15;;;;;;;5.80;3.00;;;;;;;;;;5032589;28;20038;-72
2023/09/23 08:37:41;;;;;;;12.45;3.38;;;;;;;;;;5032079;28;20061;-74
2023/09/23 08:40:10;;;;;;;8.80;3.13;;;;;;;;;;5032766;28;20033;-75
2023/09/23 08:42:38;;;;;;;8.32;2.88;;;;;;;;;;5033072;28;20053;-78
2023/09/23 08:45:06;;;;;;;5.03;3.10;;;;;;;;;;5033010;28;20041;-74
2023/09/23 08:47:33;;;;;;;5.50;3.38;;;;;;;;;;5033368;28;20040;-76
2023/09/23 08:49:59;;;;;;;8.45;4.93;;;;;;;;;;5033706;28;20044;-77
2023/09/23 08:52:26;;;;;;;10.10;4.57;;;;;;;;;;5034219;28;20075;-78
2023/09/23 08:54:52;;;;;;;11.55;5.65;;;;;;;;;;5032632;28;20435;-73
2023/09/23 08:57:19;;;;;;;6.53;3.53;;;;;;;;;;5032395;28;20021;-72
2023/09/23 08:59:46;;;;;;;12.50;4.47;;;;;;;;;;5032210;28;20025;-75
2023/09/23 09:02:22;;;;;;;6.00;3.10;;;;;;;;;;5033259;28;20083;-77
2023/09/23 09:04:48;;;;;;;9.43;3.80;;;;;;;;;;5031996;28;20030;-73
2023/09/23 09:07:15;;;;;;;6.70;3.55;;;;;;;;;;5032152;28;20506;-76
2023/09/23 09:09:41;;;;;;;8.20;4.28;;;;;;;;;;5032319;28;20017;-76
2023/09/23 09:12:09;;;;;;;5.38;3.28;;;;;;;;;;5032247;28;20063;-75
2023/09/23 09:14:34;;;;;;;8.07;4.50;;;;;;;;;;5031869;28;20094;-76
2023/09/23 09:17:00;;;;;;;6.88;3.88;;;;;;;;;;5032208;28;20035;-76
2023/09/23 09:19:27;;;;;;;8.02;3.17;;;;;;;;;;5032441;28;20018;-74
2023/09/23 09:21:54;;;;;;;10.18;3.17;;;;;;;;;;5031848;28;20053;-73
2023/09/23 09:24:22;;;;;;;4.75;2.65;;;;;;;;;;5031490;28;20097;-73
2023/09/23 09:26:49;;;;;;;7.90;3.50;;;;;;;;;;5031494;28;20392;-72
2023/09/23 09:29:16;;;;;;;7.13;2.67;;;;;;;;;;5032047;28;20025;-73
2023/09/23 09:31:42;;;;;;;5.10;2.70;;;;;;;;;;5031698;28;20025;-73
2023/09/23 09:34:11;;;;;;;9.90;2.90;;;;;;;;;;5031402;28;20037;-73
2023/09/23 09:36:40;;;;;;;6.60;3.33;;;;;;;;;;5031410;28;20100;-72
2023/09/23 09:39:08;;;;;;;6.95;3.10;;;;;;;;;;5031539;28;20021;-73
2023/09/23 09:41:48;;;;;;;6.82;2.80;;;;;;;;;;5030723;28;20071;-72
2023/09/23 09:44:15;;;;;;;9.00;2.97;;;;;;;;;;5031316;28;20018;-72
2023/09/23 09:46:43;;;;;;;5.95;3.40;;;;;;;;;;5031434;28;20021;-73
2023/09/23 09:49:10;;;;;;;6.95;2.92;;;;;;;;;;5032037;28;20014;-73
2023/09/23 09:51:36;;;;;;;6.53;2.70;;;;;;;;;;5037990;28;20037;-74
2023/09/23 09:54:04;;;;;;;3.60;2.05;;;;;;;;;;5034452;28;20021;-73
2023/09/23 09:56:30;;;;;;;3.55;2.40;;;;;;;;;;5031269;28;20026;-74
2023/09/23 09:58:59;;;;;;;7.85;2.50;;;;;;;;;;5031581;28;20025;-74
2023/09/23 10:01:25;;;;;;;6.03;2.50;;;;;;;;;;5031278;28;20014;-74
2023/09/23 10:03:53;;;;;;;6.85;2.20;;;;;;;;;;5031429;28;20452;-73
2023/09/23 10:06:21;;;;;;;6.45;2.20;;;;;;;;;;5031331;28;20103;-74
2023/09/23 10:08:52;;;;;;;6.32;1.95;;;;;;;;;;5031394;28;20025;-74
2023/09/23 10:11:28;;;;;;;4.93;2.13;;;;;;;;;;5031818;28;20471;-73
2023/09/23 10:13:54;;;;;;;4.82;1.98;;;;;;;;;;5031659;28;20037;-74
2023/09/23 10:16:27;;;;;;;8.43;2.30;;;;;;;;;;5031260;28;20033;-73
2023/09/23 10:18:54;;;;;;;5.60;2.20;;;;;;;;;;5031382;28;20025;-74
2023/09/23 10:21:24;;;;;;;6.57;2.20;;;;;;;;;;5000340;28;20337;-73
2023/09/23 10:23:52;;;;;;;2.92;1.88;;;;;;;;;;5009153;28;20015;-73
2023/09/23 10:26:19;;;;;;;5.20;2.10;;;;;;;;;;5001481;28;20046;-75
2023/09/23 10:29:03;;;;;;;9.00;2.15;;;;;;;;;;5004898;28;20104;-74
2023/09/23 10:31:30;;;;;;;5.35;2.30;;;;;;;;;;5004458;28;20045;-75
2023/09/23 10:33:56;;;;;;;6.32;2.30;;;;;;;;;;5006226;28;20030;-74
2023/09/23 10:36:23;;;;;;;6.88;2.25;;;;;;;;;;5004783;28;20136;-75
2023/09/23 10:38:49;;;;;;;4.43;1.63;;;;;;;;;;5002487;28;20025;-74
2023/09/23 10:41:15;;;;;;;7.25;2.70;;;;;;;;;;5006096;28;20025;-74
2023/09/23 10:43:41;;;;;;;3.88;2.00;;;;;;;;;;5005569;28;20023;-73
2023/09/23 10:46:08;;;;;;;3.92;2.40;;;;;;;;;;5002301;28;20033;-73
2023/09/23 10:48:34;;;;;;;7.03;2.17;;;;;;;;;;4995721;28;20066;-73
2023/09/23 10:51:00;;;;;;;5.57;1.98;;;;;;;;;;5000425;28;20105;-74
2023/09/23 10:53:30;;;;;;;4.60;2.25;;;;;;;;;;5007766;28;20076;-74
2023/09/23 10:56:01;;;;;;;3.95;1.80;;;;;;;;;;5009292;28;20022;-73
2023/09/23 10:58:29;;;;;;;4.28;1.80;;;;;;;;;;5004954;28;20384;-75
2023/09/23 11:00:57;;;;;;;8.30;2.28;;;;;;;;;;5009297;28;20015;-73
2023/09/23 11:03:23;;;;;;;6.93;2.15;;;;;;;;;;5007042;28;20666;-75
2023/09/23 11:05:49;;;;;;;4.32;2.08;;;;;;;;;;5000068;28;20050;-73
2023/09/23 11:08:18;;;;;;;10.30;2.70;;;;;;;;;;5006770;28;20072;-73
2023/09/23 11:10:48;;;;;;;6.40;2.70;;;;;;;;;;5006988;28;20018;-76
2023/09/23 11:13:14;;;;;;;7.90;3.10;;;;;;;;;;5007231;28;20026;-73
2023/09/23 11:15:45;;;;;;;4.53;2.35;;;;;;;;;;5027294;28;20109;-73
2023/09/23 11:18:13;;;;;;;8.55;2.28;;;;;;;;;;5001609;28;20018;-75
2023/09/23 11:20:41;;;;;;;5.50;2.45;;;;;;;;;;5004493;28;20029;-73
2023/09/23 11:23:07;;;;;;;4.22;2.38;;;;;;;;;;5003036;28;20591;-74
2023/09/23 11:25:37;;;;;;;6.32;2.90;;;;;;;;;;5012820;28;20101;-74
2023/09/23 11:28:03;;;;;;;4.38;2.17;;;;;;;;;;5004748;28;20480;-73
2023/09/23 11:30:30;;;;;;;4.30;2.45;;;;;;;;;;5010475;28;20026;-74
2023/09/23 11:32:56;;;;;;;9.40;4.20;;;;;;;;;;5006172;28;20054;-74
2023/09/23 11:35:25;;;;;;;4.82;3.65;;;;;;;;;;5006806;28;20108;-74
2023/09/23 11:37:53;;;;;;;4.45;3.28;;;;;;;;;;5006798;28;20029;-75
2023/09/23 11:40:19;;;;;;;7.53;3.90;;;;;;;;;;5006969;28;20014;-74
2023/09/23 11:42:45;;;;;;;7.35;4.82;;;;;;;;;;5023974;28;20029;-73
2023/09/23 11:45:12;;;;;;;5.82;4.38;;;;;;;;;;5007243;28;20097;-72
2023/09/23 11:47:38;;;;;;;5.57;4.00;;;;;;;;;;5006819;28;20112;-74
2023/09/23 11:50:06;;;;;;;13.55;7.90;;;;;;;;;;5006557;28;20026;-75
2023/09/23 11:52:35;;;;;;;6.30;4.55;;;;;;;;;;5003927;28;20030;-74
2023/09/23 11:55:03;;;;;;;6.50;5.40;;;;;;;;;;5007881;28;20057;-74
2023/09/23 11:57:29;;;;;;;7.18;5.43;;;;;;;;;;5007887;28;20034;-74
2023/09/23 11:59:55;;;;;;;6.95;6.20;;;;;;;;;;5001691;28;20025;-72
2023/09/23 12:02:21;;;;;;;6.80;5.32;;;;;;;;;;5003863;28;20399;-74
2023/09/23 12:04:48;;;;;;;6.68;5.28;;;;;;;;;;5011823;28;20068;-75
2023/09/23 12:07:16;;;;;;;10.45;7.82;;;;;;;;;;5013644;28;20052;-72
2023/09/23 12:09:43;;;;;;;10.30;7.57;;;;;;;;;;5018977;28;20114;-73
2023/09/23 12:12:12;;;;;;;10.55;6.28;;;;;;;;;;5031991;28;20132;-76
2023/09/23 12:14:38;;;;;;;8.30;6.13;;;;;;;;;;5018443;28;20087;-75
2023/09/23 12:17:04;;;;;;;10.55;6.05;;;;;;;;;;5033473;28;20030;-73
2023/09/23 12:19:30;;;;;;;9.80;6.60;;;;;;;;;;5028858;28;20048;-74
2023/09/23 12:21:56;;;;;;;9.40;5.90;;;;;;;;;;5033613;28;20434;-75
2023/09/23 12:24:22;;;;;;;13.02;6.53;;;;;;;;;;5033106;28;20033;-74
2023/09/23 12:26:48;;;;;;;7.93;6.38;;;;;;;;;;5028790;28;20138;-74
2023/09/23 12:29:14;;;;;;;11.75;6.68;;;;;;;;;;5014848;28;20053;-74
2023/09/23 12:31:40;;;;;;;11.77;6.65;;;;;;;;;;5033717;28;20032;-72
2023/09/23 12:34:06;;;;;;;9.90;6.53;;;;;;;;;;5012572;28;20034;-72
2023/09/23 12:36:32;;;;;;;7.05;5.45;;;;;;;;;;5031710;28;20055;-73
2023/09/23 12:38:58;;;;;;;12.32;6.90;;;;;;;;;;5033562;28;20079;-75
2023/09/23 12:41:24;;;;;;;8.82;6.82;;;;;;;;;;5034748;28;20034;-77
2023/09/23 12:43:50;;;;;;;10.05;7.97;;;;;;;;;;5016504;28;20030;-76
2023/09/23 12:46:16;;;;;;;25.30;14.98;;;;;;;;;;5029775;28;20032;-74
2023/09/23 12:48:44;;;;;;;13.38;7.35;;;;;;;;;;5033266;28;20109;-74
2023/09/23 12:51:12;;;;;;;7.70;6.22;;;;;;;;;;5032993;28;20033;-75
2023/09/23 12:53:38;;;;;;;11.68;6.30;;;;;;;;;;5034676;28;20037;-75
2023/09/23 12:56:04;;;;;;;12.10;7.30;;;;;;;;;;5032851;28;20159;-73
2023/09/23 12:58:30;;;;;;;13.65;6.57;;;;;;;;;;5034099;28;20022;-73
2023/09/23 13:00:56;;;;;;;10.50;6.20;;;;;;;;;;5034660;28;20492;-73
2023/09/23 13:03:22;;;;;;;9.63;5.40;;;;;;;;;;5035267;28;20029;-75
2023/09/23 13:05:48;;;;;;;12.70;6.03;;;;;;;;;;5033689;28;20494;-76
2023/09/23 13:08:14;;;;;;;8.82;5.75;;;;;;;;;;5032325;28;20033;-74
2023/09/23 13:10:41;;;;;;;11.50;6.03;;;;;;;;;;5030960;28;20026;-73
2023/09/23 13:13:07;;;;;;;15.02;7.10;;;;;;;;;;5034203;28;20032;-77
2023/09/23 13:15:33;;;;;;;12.90;6.45;;;;;;;;;;5037554;28;20033;-74
2023/09/23 13:18:01;;;;;;;11.35;6.50;;;;;;;;;;5038923;28;20469;-74
2023/09/23 13:20:27;;;;;;;11.60;6.20;;;;;;;;;;5034741;28;20030;-74
2023/09/23 13:22:53;;;;;;;6.80;5.32;;;;;;;;;;5034856;28;20040;-75
2023/09/23 13:25:19;;;;;;;12.82;5.60;;;;;;;;;;5033115;28;20055;-74
2023/09/23 13:27:45;;;;;;;9.43;5.05;;;;;;;;;;5032021;28;20032;-74
2023/09/23 13:30:11;;;;;;;8.52;4.28;;;;;;;;;;5032073;28;20029;-74
2023/09/23 13:32:38;;;;;;;9.95;4.70;;;;;;;;;;5030463;28;20036;-74
2023/09/23 13:35:05;;;;;;;6.38;3.80;;;;;;;;;;5031630;28;20025;-74
2023/09/23 13:37:31;;;;;;;13.48;4.85;;;;;;;;;;5031876;28;20480;-74
2023/09/23 13:39:58;;;;;;;10.80;4.20;;;;;;;;;;5031963;28;20096;-75
2023/09/23 13:42:24;;;;;;;6.97;4.20;;;;;;;;;;5031688;28;20053;-74
2023/09/23 13:44:50;;;;;;;10.85;3.88;;;;;;;;;;5031378;28;20021;-74
2023/09/23 13:47:17;;;;;;;12.13;4.75;;;;;;;;;;5031539;28;20053;-74
2023/09/23 13:49:43;;;;;;;9.90;3.40;;;;;;;;;;5031656;28;20416;-75
2023/09/23 13:52:09;;;;;;;8.60;4.28;;;;;;;;;;5032111;28;20025;-73
2023/09/23 13:54:35;;;;;;;8.07;4.80;;;;;;;;;;5032004;28;20112;-74
2023/09/23 13:57:01;;;;;;;7.63;3.85;;;;;;;;;;5031879;28;20087;-74
2023/09/23 13:59:27;;;;;;;15.00;4.40;;;;;;;;;;5031923;28;20029;-74
2023/09/23 14:01:53;;;;;;;7.45;4.05;;;;;;;;;;5032083;28;20029;-74
2023/09/23 14:04:19;;;;;;;9.10;3.85;;;;;;;;;;5033001;28;20369;-74
2023/09/23 14:06:45;;;;;;;10.60;3.90;;;;;;;;;;5032540;28;20017;-75
2023/09/23 14:09:11;;;;;;;5.85;3.03;;;;;;;;;;5031244;28;20048;-76
2023/09/23 14:11:37;;;;;;;7.03;3.10;;;;;;;;;;5033516;28;20487;-76
2023/09/23 14:14:03;;;;;;;6.72;3.20;;;;;;;;;;5033401;28;20033;-79
2023/09/23 14:16:30;;;;;;;7.15;3.10;;;;;;;;;;5032713;28;20030;-76
2023/09/23 14:18:56;;;;;;;6.70;3.20;;;;;;;;;;5032953;28;20026;-77
2023/09/23 14:21:22;;;;;;;7.43;3.17;;;;;;;;;;5033955;28;20022;-80
2023/09/23 14:23:48;;;;;;;6.88;3.30;;;;;;;;;;5044246;28;20028;-77
2023/09/23 14:26:14;;;;;;;6.85;3.50;;;;;;;;;;5050479;28;20016;-74
2023/09/23 14:28:42;;;;;;;7.47;3.20;;;;;;;;;;5057138;28;20033;-74
2023/09/23 14:31:09;;;;;;;6.88;3.40;;;;;;;;;;5058882;28;20021;-74